Have a Safe July 4th! 

Flight Track Log - Related Links

Times and Time Zones

All times are in EST time to prevent confusion due to time zone crossing. See the HRF1VW flight status page for this flight to view local times or setup timezone preferences in your user account.

Time Position Orientation Groundspeed Altitude Reporting Facility
EST Latitude Longitude Course Direction KTS MPH feet Rate Location/Type
Mon 12:25:33 PM 27.9167 -82.6833 341° North 167 192 600  Level Tampa TRACON
Mon 12:25:57 PM 27.9333 -82.7000 319° Northwest 170 196 1,000 714 Climbing Tampa TRACON
Mon 12:26:57 PM 28.0000 -82.7167 348° North 245 282 1,600 300 Climbing Tampa TRACON
Mon 12:27:57 PM 28.0500 -82.7333 344° North 202 232 1,600 350 Level Tampa TRACON
Mon 12:28:57 PM 28.1000 -82.7667 330° Northwest 181 208 2,300 900 Climbing Tampa TRACON
Mon 12:29:57 PM 28.1500 -82.7833 344° North 210 242 3,400 1,250 Climbing Tampa TRACON
Mon 12:30:57 PM 28.2167 -82.7833 360° North 222 255 4,800 1,240 Climbing Tampa TRACON
Mon 12:31:00 PM 28.3093 -82.8604 341° North  Level FlightAware Approximate
Mon 12:31:58 PM 28.2667 -82.7833 360° North 235 270 5,900  Level Tampa TRACON
Mon 12:32:58 PM 28.3333 -82.8000 348° North 243 280 6,300 891 Climbing Tampa TRACON
Mon 12:34:06 PM 28.4086 -82.7981 North 241 277 7,800 1,406 Climbing Jacksonville Center
Mon 12:35:06 PM 28.4733 -82.8028 356° North 235 270 9,300 1,400 Climbing Jacksonville Center
Mon 12:36:06 PM 28.5381 -82.8075 356° North 235 270 10,600 800 Climbing Jacksonville Center
Mon 12:37:06 PM 28.6028 -82.8122 356° North 235 270 10,900 600 Climbing Jacksonville Center
Mon 12:38:06 PM 28.6758 -82.8192 355° North 245 282 11,800 1,200 Climbing Jacksonville Center
Mon 12:39:06 PM 28.7447 -82.8311 351° North 245 282 13,300 1,450 Climbing Jacksonville Center
Mon 12:40:06 PM 28.8011 -82.8594 336° Northwest 228 262 14,700 1,450 Climbing Jacksonville Center
Mon 12:41:06 PM 28.8575 -82.8903 334° Northwest 217 250 16,200 1,500 Climbing Jacksonville Center
Mon 12:42:06 PM 28.9117 -82.9164 337° Northwest 217 250 17,700 1,400 Climbing Jacksonville Center
Mon 12:43:06 PM 28.9681 -82.9447 336° Northwest 217 250 19,000 1,150 Climbing Jacksonville Center
Mon 12:44:06 PM 29.0264 -82.9708 339° North 217 250 20,000 450 Climbing Jacksonville Center
Mon 12:45:06 PM 29.0911 -83.0042 336° Northwest 223 257 19,900  Descending Jacksonville Center
Mon 12:46:06 PM 29.1600 -83.0375 337° Northwest 245 282 20,000  Climbing Jacksonville Center
Mon 12:47:06 PM 29.2308 -83.0711 338° Northwest 266 306 19,900 -50 Descending Jacksonville Center
Mon 12:48:06 PM 29.3039 -83.1069 337° Northwest 272 313 19,900  Level Jacksonville Center
Mon 12:49:06 PM 29.3769 -83.1403 338° Northwest 277 319 19,900  Level Jacksonville Center
Mon 12:50:06 PM 29.4519 -83.1764 337° Northwest 277 319 19,900  Level Jacksonville Center
Mon 12:51:06 PM 29.5167 -83.2100 336° Northwest 277 319 19,900 50 Level Jacksonville Center
Mon 12:52:06 PM 29.5897 -83.2461 337° Northwest 277 319 20,000 50 Climbing Jacksonville Center
Mon 12:53:06 PM 29.6689 -83.2822 338° Northwest 277 319 20,000  Level Jacksonville Center
Mon 12:54:06 PM 29.7417 -83.3183 337° Northwest 277 319 20,000  Level Jacksonville Center
Mon 12:55:06 PM 29.8128 -83.3522 338° Northwest 277 319 20,000  Level Jacksonville Center
Mon 12:56:06 PM 29.8856 -83.3908 335° Northwest 277 319 20,000 -50 Level Jacksonville Center
Mon 12:57:06 PM 29.9503 -83.4200 339° North 277 319 19,900  Descending Jacksonville Center
Mon 12:58:06 PM 30.0231 -83.4564 337° Northwest 277 319 20,000 50 Climbing Jacksonville Center
Mon 12:59:06 PM 30.0961 -83.4903 338° Northwest 277 319 20,000  Level Jacksonville Center
Mon 01:00:06 PM 30.1689 -83.5269 336° Northwest 277 319 20,000  Level Jacksonville Center
Mon 01:01:06 PM 30.2417 -83.5633 337° Northwest 277 319 20,000  Level Jacksonville Center
Mon 01:02:06 PM 30.3147 -83.6000 337° Northwest 277 319 20,000  Level Jacksonville Center
Mon 01:03:06 PM 30.3856 -83.6319 339° North 277 319 20,000  Level Jacksonville Center
Mon 01:04:06 PM 30.4583 -83.6686 337° Northwest 277 319 20,000  Level Jacksonville Center
Mon 01:05:06 PM 30.5292 -83.7053 336° Northwest 277 319 20,000  Level Jacksonville Center
Mon 01:06:06 PM 30.5997 -83.7397 337° Northwest 272 313 20,000  Level Jacksonville Center
Mon 01:07:06 PM 30.6728 -83.7767 336° Northwest 272 313 20,000  Level Jacksonville Center
Mon 01:08:06 PM 30.7433 -83.8136 336° Northwest 272 313 20,000  Level Jacksonville Center
Mon 01:09:06 PM 30.8161 -83.8481 338° Northwest 272 313 20,000  Level Jacksonville Center
Mon 01:10:06 PM 30.8892 -83.8850 337° Northwest 277 319 20,000  Level Jacksonville Center
Mon 01:11:06 PM 30.9578 -83.9197 337° Northwest 277 319 20,000  Level Jacksonville Center
Mon 01:12:06 PM 31.0306 -83.9569 336° Northwest 277 319 20,000  Level Jacksonville Center
Mon 01:13:06 PM 31.1033 -83.9917 338° Northwest 277 319 20,000  Level Jacksonville Center
Mon 01:14:06 PM 31.1758 -84.0289 336° Northwest 277 319 20,000  Level Jacksonville Center
Mon 01:15:06 PM 31.2467 -84.0661 336° Northwest 277 319 20,000  Level Jacksonville Center
Mon 01:16:06 PM 31.3194 -84.1011 338° Northwest 277 319 20,000  Level Jacksonville Center
Mon 01:17:06 PM 31.3919 -84.1386 336° Northwest 277 319 20,000  Level Jacksonville Center
Mon 01:18:06 PM 31.4628 -84.1761 336° Northwest 277 319 20,000  Level Jacksonville Center
Mon 01:19:06 PM 31.5353 -84.2114 337° Northwest 277 319 20,000  Level Jacksonville Center
Mon 01:20:06 PM 31.6142 -84.2539 335° Northwest 277 319 20,000  Level Jacksonville Center
Mon 01:22:15 PM 31.7672 -84.3319 337° Northwest 274 315 20,000  Level Atlanta Center
Mon 01:23:15 PM 31.8381 -84.3664 338° Northwest 274 315 20,000  Level Atlanta Center
Mon 01:24:15 PM 31.9089 -84.4033 336° Northwest 274 315 20,000  Level Atlanta Center
Mon 01:25:15 PM 31.9797 -84.4406 336° Northwest 274 315 20,000  Level Atlanta Center
Mon 01:26:15 PM 32.0506 -84.4800 335° Northwest 274 315 20,000  Level Atlanta Center
Mon 01:27:15 PM 32.1153 -84.5097 339° North 274 315 20,000  Level Atlanta Center
Mon 01:28:15 PM 32.1839 -84.5444 337° Northwest 274 315 20,000  Level Atlanta Center
Mon 01:29:15 PM 32.2547 -84.5817 336° Northwest 274 315 20,000  Level Atlanta Center
Mon 01:30:15 PM 32.3256 -84.6189 336° Northwest 274 315 20,000  Level Atlanta Center
Mon 01:31:15 PM 32.3964 -84.6564 336° Northwest 274 315 20,000  Level Atlanta Center
Mon 01:32:15 PM 32.4650 -84.6911 337° Northwest 274 315 20,000  Level Atlanta Center
Mon 01:33:15 PM 32.5378 -84.7311 335° Northwest 274 315 20,000  Level Atlanta Center
Mon 01:34:15 PM 32.6064 -84.7664 337° Northwest 274 315 20,000  Level Atlanta Center
Mon 01:35:15 PM 32.6772 -84.8039 336° Northwest 274 315 20,000  Level Atlanta Center
Mon 01:36:15 PM 32.7564 -84.8392 339° North 274 315 20,000  Level Atlanta Center
Mon 01:37:15 PM 32.8228 -84.8842 330° Northwest 279 321 20,000  Level Atlanta Center
Mon 01:38:15 PM 32.8936 -84.9194 337° Northwest 279 321 20,000  Level Atlanta Center
Mon 01:39:15 PM 32.9642 -84.9550 337° Northwest 279 321 20,000  Level Atlanta Center
Mon 01:40:15 PM 33.0369 -84.9903 338° Northwest 274 315 20,000  Level Atlanta Center
Mon 01:41:15 PM 33.1097 -85.0333 334° Northwest 274 315 20,000  Level Atlanta Center
Mon 01:42:15 PM 33.1806 -85.0689 337° Northwest 274 315 20,000  Level Atlanta Center
Mon 01:43:15 PM 33.2511 -85.1069 336° Northwest 279 321 20,000  Level Atlanta Center
Mon 01:44:15 PM 33.3239 -85.1453 336° Northwest 322 371 20,000  Level Atlanta Center
Mon 01:45:15 PM 33.4050 -85.1858 337° Northwest 314 361 20,000  Level Atlanta Center
Mon 01:46:15 PM 33.4756 -85.2242 336° Northwest 290 334 20,000  Level Atlanta Center
Mon 01:47:15 PM 33.5461 -85.2625 336° Northwest 284 327 20,000  Level Atlanta Center
Mon 01:48:47 PM 33.6428 -85.3103 338° Northwest 282 325 20,000  Level Memphis Center
Mon 01:49:49 PM 33.7289 -85.3564 336° Northwest 283 326 20,000  Level Memphis Center
Mon 01:50:51 PM 33.8003 -85.3956 335° Northwest 283 326 20,000  Level Memphis Center
Mon 01:51:53 PM 33.8728 -85.4331 337° Northwest 283 326 20,000  Level Memphis Center
Mon 01:52:55 PM 33.9436 -85.4722 335° Northwest 283 326 20,000  Level Memphis Center
Mon 01:53:57 PM 34.0167 -85.5114 336° Northwest 283 326 20,000  Level Memphis Center
Mon 01:54:59 PM 34.0881 -85.5506 336° Northwest 284 327 20,000  Level Memphis Center
Mon 01:56:01 PM 34.1739 -85.5961 336° Northwest 283 326 20,000  Level Memphis Center
Mon 01:57:03 PM 34.2447 -85.6347 336° Northwest 283 326 20,000  Level Memphis Center
Mon 01:58:05 PM 34.3175 -85.6753 335° Northwest 284 327 20,000  Level Memphis Center
Mon 01:59:07 PM 34.3908 -85.7147 336° Northwest 284 327 20,000  Level Memphis Center
Mon 02:00:09 PM 34.4614 -85.7533 336° Northwest 284 327 20,000  Level Memphis Center
Mon 02:01:11 PM 34.5381 -85.7950 336° Northwest 283 326 20,000  Level Memphis Center
Mon 02:02:14 PM 34.6086 -85.8344 335° Northwest 283 326 20,000  Level Memphis Center
Mon 02:03:16 PM 34.6906 -85.8781 336° Northwest 283 326 20,000  Level Memphis Center
Mon 02:04:18 PM 34.7622 -85.9186 335° Northwest 283 326 20,000  Level Memphis Center
Mon 02:05:20 PM 34.8417 -85.9622 336° Northwest 283 326 20,000 -48 Level Memphis Center
Mon 02:06:22 PM 34.9097 -86.0000 336° Northwest 280 322 19,900 -290 Descending Memphis Center
Mon 02:07:24 PM 34.9811 -86.0403 335° Northwest 280 322 19,400 -484 Descending Memphis Center
Mon 02:08:26 PM 35.0531 -86.0800 336° Northwest 280 322 18,900 -532 Descending Memphis Center
Mon 02:09:28 PM 35.1228 -86.1183 336° Northwest 280 322 18,300 -581 Descending Memphis Center
Mon 02:10:30 PM 35.2056 -86.1639 336° Northwest 272 313 17,700 -532 Descending Memphis Center
Mon 02:11:32 PM 35.2761 -86.2042 335° Northwest 271 312 17,200 -677 Descending Memphis Center
Mon 02:12:34 PM 35.3422 -86.2417 335° Northwest 265 305 16,300 -871 Descending Memphis Center
Mon 02:13:36 PM 35.4086 -86.2775 336° Northwest 260 299 15,400 -919 Descending Memphis Center
Mon 02:14:38 PM 35.4703 -86.3122 335° Northwest 248 285 14,400 -919 Descending Memphis Center
Mon 02:15:40 PM 35.5286 -86.3458 335° Northwest 236 272 13,500 -871 Descending Memphis Center
Mon 02:16:42 PM 35.5883 -86.3803 335° Northwest 234 269 12,600 -919 Descending Memphis Center
Mon 02:17:44 PM 35.6508 -86.4147 336° Northwest 238 274 11,600 -1,016 Descending Memphis Center
Mon 02:18:46 PM 35.7208 -86.4556 335° Northwest 238 274 10,500 -968 Descending Memphis Center
Mon 02:19:48 PM 35.7814 -86.4889 336° Northwest 238 274 9,600 -871 Descending Memphis Center
Mon 02:20:50 PM 35.8428 -86.5239 335° Northwest 238 274 8,700 -774 Descending Memphis Center
Mon 02:21:52 PM 35.9069 -86.5600 335° Northwest 246 283 8,000 -339 Descending Memphis Center
Mon 02:22:54 PM 35.9658 -86.5939 335° Northwest 237 273 8,000  Level Memphis Center
Mon 02:23:56 PM 36.0264 -86.6283 335° Northwest 237 273 8,000  Level Memphis Center
Mon 02:24:58 PM 36.0883 -86.6636 335° Northwest 238 274 8,000  Level Memphis Center
Mon 02:26:01 PM 36.1467 -86.6964 336° Northwest 234 269 8,000  Level Memphis Center
Mon 02:27:03 PM 36.2139 -86.7353 335° Northwest 230 265 8,000 -290 Level Memphis Center
Mon 02:28:05 PM 36.2714 -86.7681 335° Northwest 228 262 7,400 -387 Descending Memphis Center
Mon 02:29:07 PM 36.3311 -86.8014 336° Northwest 228 262 7,200 -194 Descending Memphis Center

Login

Don't have an account? Register now (free) for customized features, flight alerts, and more!